createdAt,value
2018-10-09T00:00:07.584Z,99.99
2018-10-09T00:01:07.600Z,99.99
2018-10-09T00:02:07.553Z,99.99
2018-10-09T00:03:07.520Z,99.99
2018-10-09T00:04:07.497Z,99.99
2018-10-09T00:05:07.478Z,99.99
2018-10-09T00:06:07.457Z,99.99
2018-10-09T00:07:07.433Z,99.99
2018-10-09T00:08:07.410Z,99.99
2018-10-09T00:09:07.398Z,99.99
2018-10-09T00:10:07.378Z,99.99
2018-10-09T00:11:07.361Z,99.99
2018-10-09T00:12:07.336Z,99.99
2018-10-09T00:13:07.317Z,99.99
2018-10-09T00:14:07.292Z,99.99
2018-10-09T00:15:07.272Z,99.99
2018-10-09T00:16:07.252Z,99.99
2018-10-09T00:17:07.230Z,99.99
2018-10-09T00:18:07.201Z,99.99
2018-10-09T00:19:07.186Z,99.99
2018-10-09T00:20:07.168Z,99.99
2018-10-09T00:21:07.152Z,99.99
2018-10-09T00:22:07.127Z,99.99
2018-10-09T00:23:07.111Z,99.99
2018-10-09T00:24:07.082Z,99.99
2018-10-09T00:25:07.135Z,99.99
2018-10-09T00:26:07.090Z,99.99
2018-10-09T00:27:07.028Z,99.99
2018-10-09T00:28:06.996Z,99.99
2018-10-09T00:29:06.977Z,99.99
2018-10-09T00:30:06.957Z,99.99
2018-10-09T00:31:06.935Z,99.99
2018-10-09T00:32:06.916Z,99.99
2018-10-09T00:33:06.890Z,99.99
2018-10-09T00:34:06.868Z,99.99
2018-10-09T00:35:06.861Z,99.99
2018-10-09T00:36:06.834Z,99.99
2018-10-09T00:37:06.811Z,99.99
2018-10-09T00:38:06.784Z,99.99
2018-10-09T00:39:06.761Z,99.99
2018-10-09T00:40:06.742Z,99.99
2018-10-09T00:41:06.727Z,99.99
2018-10-09T00:42:06.712Z,99.99
2018-10-09T00:43:06.681Z,99.99
2018-10-09T00:44:06.658Z,99.99
2018-10-09T00:45:06.643Z,99.99
2018-10-09T00:46:06.617Z,99.99
2018-10-09T00:47:06.598Z,99.99
2018-10-09T00:48:06.579Z,99.99
2018-10-09T00:49:06.561Z,99.99
2018-10-09T00:50:06.546Z,99.99
2018-10-09T00:51:06.518Z,99.99
2018-10-09T00:52:06.508Z,99.99
2018-10-09T00:53:06.480Z,99.99
2018-10-09T00:54:06.454Z,99.99
2018-10-09T00:55:06.442Z,99.99
2018-10-09T00:56:06.419Z,99.99
2018-10-09T00:57:06.382Z,99.99
2018-10-09T00:58:06.373Z,99.99
2018-10-09T00:59:06.350Z,99.99
2018-10-09T01:00:06.342Z,99.99
2018-10-09T01:01:06.309Z,99.99
2018-10-09T01:02:06.286Z,99.99
2018-10-09T01:03:06.270Z,99.99
2018-10-09T01:04:06.268Z,99.99
2018-10-09T01:05:06.227Z,99.99
2018-10-09T01:06:06.210Z,99.99
2018-10-09T01:07:06.188Z,99.99
2018-10-09T01:08:06.162Z,99.99
2018-10-09T01:09:06.181Z,99.99
2018-10-09T01:10:06.121Z,99.99
2018-10-09T01:11:06.105Z,99.99
2018-10-09T01:12:06.080Z,99.99
2018-10-09T01:13:06.057Z,99.99
2018-10-09T01:14:06.044Z,99.99
2018-10-09T01:15:06.013Z,99.99
2018-10-09T01:16:06.003Z,99.99
2018-10-09T01:17:05.977Z,99.99
2018-10-09T01:18:05.957Z,99.99
2018-10-09T01:19:05.936Z,99.99
2018-10-09T01:20:05.904Z,99.99
2018-10-09T01:21:05.904Z,99.99
2018-10-09T01:22:05.882Z,99.99
2018-10-09T01:23:05.852Z,99.99
2018-10-09T01:24:05.827Z,99.99
2018-10-09T01:25:05.808Z,99.99
2018-10-09T01:26:05.796Z,99.99
2018-10-09T01:27:05.766Z,99.99
2018-10-09T01:28:05.744Z,99.99
2018-10-09T01:29:05.721Z,99.99
2018-10-09T01:30:05.703Z,99.99
2018-10-09T01:31:05.677Z,99.99
2018-10-09T01:32:05.665Z,99.99
2018-10-09T01:33:05.652Z,99.99
2018-10-09T01:34:05.642Z,99.99
2018-10-09T01:35:05.621Z,99.99
2018-10-09T01:36:05.593Z,99.99
2018-10-09T01:37:05.547Z,99.99
2018-10-09T01:38:05.537Z,99.99
2018-10-09T01:39:05.512Z,99.99
2018-10-09T01:40:05.512Z,99.99
2018-10-09T01:41:05.475Z,99.99
2018-10-09T01:42:05.445Z,99.99
2018-10-09T01:43:05.427Z,99.99
2018-10-09T01:44:05.410Z,99.99
2018-10-09T01:45:05.399Z,99.99
2018-10-09T01:46:05.362Z,99.99
2018-10-09T01:47:05.346Z,99.99
2018-10-09T01:48:05.321Z,99.99
2018-10-09T01:49:05.301Z,99.99
2018-10-09T01:50:05.279Z,99.99
2018-10-09T01:51:05.247Z,99.99
2018-10-09T01:52:05.230Z,99.99
2018-10-09T01:53:05.211Z,99.99
2018-10-09T01:54:05.201Z,99.99
2018-10-09T01:55:05.182Z,99.99
2018-10-09T01:56:05.156Z,99.99
2018-10-09T01:57:05.128Z,99.99
2018-10-09T01:58:05.115Z,99.99
2018-10-09T01:59:05.083Z,99.99
2018-10-09T02:00:05.064Z,99.99
2018-10-09T02:01:05.048Z,99.99
2018-10-09T02:02:05.017Z,99.99
2018-10-09T02:03:05.004Z,99.99
2018-10-09T02:04:04.979Z,99.99
2018-10-09T02:05:04.962Z,99.99
2018-10-09T02:06:04.950Z,99.99
2018-10-09T02:07:04.911Z,99.99
2018-10-09T02:08:04.899Z,99.99
2018-10-09T02:09:04.873Z,99.99
2018-10-09T02:10:04.851Z,99.99
2018-10-09T02:11:04.827Z,99.99
2018-10-09T02:12:04.808Z,99.99
2018-10-09T02:13:04.782Z,99.99
2018-10-09T02:14:04.770Z,99.99
2018-10-09T02:15:04.741Z,99.99
2018-10-09T02:16:04.725Z,99.99
2018-10-09T02:17:04.703Z,99.99
2018-10-09T02:18:04.691Z,99.99
2018-10-09T02:19:04.661Z,99.99
2018-10-09T02:20:04.646Z,99.99
2018-10-09T02:21:04.622Z,99.99
2018-10-09T02:22:04.590Z,99.99
2018-10-09T02:23:04.571Z,99.99
2018-10-09T02:24:04.551Z,99.99
2018-10-09T02:25:04.532Z,99.99
2018-10-09T02:26:04.513Z,99.99
2018-10-09T02:27:04.488Z,99.99
2018-10-09T02:28:04.469Z,99.99
2018-10-09T02:29:04.452Z,99.99
2018-10-09T02:30:04.427Z,99.99
2018-10-09T02:31:04.405Z,99.99
2018-10-09T02:32:04.404Z,99.99
2018-10-09T02:33:04.356Z,99.99
2018-10-09T02:34:04.331Z,99.99
2018-10-09T02:35:04.318Z,99.99
2018-10-09T02:36:04.289Z,99.99
2018-10-09T02:37:04.273Z,99.99
2018-10-09T02:38:04.256Z,99.99
2018-10-09T02:39:04.232Z,99.99
2018-10-09T02:40:04.209Z,99.99
2018-10-09T02:41:04.180Z,99.99
2018-10-09T02:42:04.161Z,99.99
2018-10-09T02:43:04.145Z,99.99
2018-10-09T02:44:04.138Z,99.99
2018-10-09T02:45:04.110Z,99.99
2018-10-09T02:46:04.087Z,99.99
2018-10-09T02:47:04.055Z,99.99
2018-10-09T02:48:04.043Z,99.99
2018-10-09T02:49:04.013Z,99.99
2018-10-09T02:50:04.002Z,99.99
2018-10-09T02:51:03.963Z,99.99
2018-10-09T02:52:03.952Z,99.99
2018-10-09T02:53:03.927Z,99.99
2018-10-09T02:54:03.907Z,99.99
2018-10-09T02:55:03.881Z,99.99
2018-10-09T02:56:03.868Z,99.99
2018-10-09T02:57:03.852Z,99.99
2018-10-09T02:58:03.824Z,99.99
2018-10-09T02:59:03.793Z,99.99
2018-10-09T03:00:03.776Z,99.99
2018-10-09T03:01:03.767Z,99.99
2018-10-09T03:02:03.737Z,99.99
2018-10-09T03:03:03.709Z,99.99
2018-10-09T03:04:03.690Z,99.99
2018-10-09T03:05:03.670Z,99.99
2018-10-09T03:06:03.648Z,99.99
2018-10-09T03:07:03.637Z,99.99
2018-10-09T03:08:03.613Z,99.99
2018-10-09T03:09:03.588Z,99.99
2018-10-09T03:10:03.562Z,99.99
2018-10-09T03:11:03.540Z,99.99
2018-10-09T03:12:03.508Z,99.99
2018-10-09T03:13:03.498Z,99.99
2018-10-09T03:14:03.479Z,99.99
2018-10-09T03:15:03.451Z,99.99
2018-10-09T03:16:03.427Z,99.99
2018-10-09T03:17:03.405Z,99.99
2018-10-09T03:18:03.409Z,99.99
2018-10-09T03:19:03.361Z,99.99
2018-10-09T03:20:03.342Z,99.99
2018-10-09T03:21:03.319Z,99.99
2018-10-09T03:22:03.299Z,99.99
2018-10-09T03:23:03.290Z,99.99
2018-10-09T03:24:03.257Z,99.99
2018-10-09T03:25:03.264Z,99.99
2018-10-09T03:26:03.218Z,99.99
2018-10-09T03:27:03.195Z,99.99
2018-10-09T03:28:03.164Z,99.99
2018-10-09T03:29:03.187Z,99.99
2018-10-09T03:30:03.128Z,99.99
2018-10-09T03:31:03.113Z,99.99
2018-10-09T03:32:03.096Z,99.99
2018-10-09T03:33:03.064Z,99.99
2018-10-09T03:34:03.049Z,99.99
2018-10-09T03:35:03.026Z,99.99
2018-10-09T03:36:02.997Z,99.99
2018-10-09T03:37:02.989Z,99.99
2018-10-09T03:38:02.957Z,99.99
2018-10-09T03:39:03.878Z,99.99
2018-10-09T03:40:02.908Z,99.99
2018-10-09T03:41:02.892Z,99.99
2018-10-09T03:42:02.870Z,99.99
2018-10-09T03:43:02.851Z,99.99
2018-10-09T03:44:02.830Z,99.99
2018-10-09T03:45:02.802Z,99.99
2018-10-09T03:46:02.782Z,99.99
2018-10-09T03:47:02.755Z,99.99
2018-10-09T03:48:02.738Z,99.99
2018-10-09T03:49:02.712Z,99.99
2018-10-09T03:50:02.702Z,99.99
2018-10-09T03:51:02.673Z,99.99
2018-10-09T03:52:02.654Z,99.99
2018-10-09T03:53:02.627Z,99.99
2018-10-09T03:54:02.611Z,99.99
2018-10-09T03:55:02.582Z,99.99
2018-10-09T03:56:02.582Z,99.99
2018-10-09T03:57:02.534Z,99.99
2018-10-09T03:58:02.515Z,99.99
2018-10-09T03:59:02.514Z,99.99
2018-10-09T04:00:02.479Z,99.99
2018-10-09T04:01:02.466Z,99.99
2018-10-09T04:02:02.434Z,99.99
2018-10-09T04:03:02.402Z,99.99
2018-10-09T04:04:02.386Z,99.99
2018-10-09T04:05:02.369Z,99.99
2018-10-09T04:06:02.341Z,99.99
2018-10-09T04:07:02.329Z,99.99
2018-10-09T04:08:02.304Z,99.99
2018-10-09T04:09:02.342Z,99.99
2018-10-09T04:10:02.259Z,99.99
2018-10-09T04:11:02.231Z,99.99
2018-10-09T04:12:02.212Z,99.99
2018-10-09T04:13:02.194Z,99.99
2018-10-09T04:14:02.168Z,99.99
2018-10-09T04:15:02.149Z,99.99
2018-10-09T04:16:02.129Z,99.99
2018-10-09T04:17:02.107Z,99.99
2018-10-09T04:18:02.085Z,99.99
2018-10-09T04:19:02.068Z,99.99
2018-10-09T04:20:02.036Z,99.99
2018-10-09T04:21:02.023Z,99.99
2018-10-09T04:22:01.991Z,99.99
2018-10-09T04:23:01.976Z,99.99
2018-10-09T04:24:01.950Z,99.99
2018-10-09T04:25:01.931Z,99.99
2018-10-09T04:26:01.912Z,99.99
2018-10-09T04:27:01.892Z,99.99
2018-10-09T04:28:01.861Z,99.99
2018-10-09T04:29:01.841Z,99.99
2018-10-09T04:30:01.818Z,99.99
2018-10-09T04:31:01.803Z,99.99
2018-10-09T04:32:01.787Z,99.99
2018-10-09T04:33:01.745Z,99.99
2018-10-09T04:34:01.730Z,99.99
2018-10-09T04:35:01.711Z,99.99
2018-10-09T04:36:01.688Z,99.99
2018-10-09T04:37:01.668Z,99.99
2018-10-09T04:38:01.653Z,99.99
2018-10-09T04:39:01.622Z,99.99
2018-10-09T04:40:01.604Z,99.99
2018-10-09T04:41:01.586Z,99.99
2018-10-09T04:42:01.574Z,99.99
2018-10-09T04:43:01.536Z,99.99
2018-10-09T04:44:01.516Z,99.99
2018-10-09T04:45:01.493Z,99.99
2018-10-09T04:46:01.477Z,99.99
2018-10-09T04:47:01.449Z,99.99
2018-10-09T04:48:01.432Z,99.99
2018-10-09T04:49:01.405Z,99.99
2018-10-09T04:50:01.384Z,99.99
2018-10-09T04:51:01.366Z,99.99
2018-10-09T04:52:01.335Z,99.99
2018-10-09T04:53:01.353Z,99.99
2018-10-09T04:54:01.313Z,99.99
2018-10-09T04:55:01.268Z,99.99
2018-10-09T04:56:01.258Z,99.99
2018-10-09T04:57:01.233Z,99.99
2018-10-09T04:58:01.216Z,99.99
2018-10-09T04:59:01.191Z,99.99
2018-10-09T05:00:01.159Z,99.99
2018-10-09T05:01:01.140Z,99.99
2018-10-09T05:02:01.130Z,99.99
2018-10-09T05:03:01.097Z,99.99
2018-10-09T05:04:01.069Z,99.99
2018-10-09T05:05:01.052Z,99.99
2018-10-09T05:06:01.031Z,99.99
2018-10-09T05:07:01.009Z,99.99
2018-10-09T05:08:00.990Z,99.99
2018-10-09T05:09:00.964Z,99.99
2018-10-09T05:10:00.942Z,99.99
2018-10-09T05:11:00.923Z,99.99
2018-10-09T05:12:00.913Z,99.99
2018-10-09T05:13:00.887Z,99.99
2018-10-09T05:14:00.859Z,99.99
2018-10-09T05:15:00.843Z,99.99
2018-10-09T05:16:00.809Z,99.99
2018-10-09T05:17:00.783Z,99.99
2018-10-09T05:18:00.768Z,99.99
2018-10-09T05:19:00.742Z,99.99
2018-10-09T05:20:00.761Z,99.99
2018-10-09T05:21:00.700Z,99.99
2018-10-09T05:22:00.678Z,99.99
2018-10-09T05:23:00.656Z,99.99
2018-10-09T05:24:00.633Z,99.99
2018-10-09T05:25:00.615Z,99.99
2018-10-09T05:26:00.590Z,99.99
2018-10-09T05:27:00.568Z,99.99
2018-10-09T05:28:00.544Z,99.99
2018-10-09T05:29:00.515Z,99.99
2018-10-09T05:30:00.499Z,99.99
2018-10-09T05:31:00.539Z,99.99
2018-10-09T05:32:00.458Z,99.99
2018-10-09T05:33:00.434Z,99.99
2018-10-09T05:34:00.461Z,99.99
2018-10-09T05:35:00.422Z,99.99
2018-10-09T05:36:00.370Z,99.99
2018-10-09T05:37:00.348Z,99.99
2018-10-09T05:38:00.351Z,99.99
2018-10-09T05:39:00.296Z,99.99
2018-10-09T05:40:00.295Z,99.99
2018-10-09T05:41:00.258Z,99.99
2018-10-09T05:42:00.239Z,99.99
2018-10-09T05:43:00.217Z,99.99
2018-10-09T05:44:00.212Z,99.99
2018-10-09T05:45:00.168Z,99.99
2018-10-09T05:46:00.161Z,99.99
2018-10-09T05:47:00.122Z,99.99
2018-10-09T05:48:00.116Z,99.99
2018-10-09T05:49:00.119Z,99.99
2018-10-09T05:50:00.094Z,99.99
2018-10-09T05:51:00.042Z,99.99
2018-10-09T05:52:00.026Z,99.99
2018-10-09T05:53:00.007Z,99.99
2018-10-09T05:53:59.974Z,99.99
2018-10-09T05:54:59.984Z,99.99
2018-10-09T05:55:59.926Z,99.99
2018-10-09T05:56:59.904Z,99.99
2018-10-09T05:57:59.952Z,99.99
2018-10-09T05:58:59.868Z,99.99
2018-10-09T05:59:59.836Z,99.99
2018-10-09T06:00:59.847Z,99.99
2018-10-09T06:01:59.801Z,99.99
2018-10-09T06:02:59.775Z,99.99
2018-10-09T06:03:59.749Z,99.99
2018-10-09T06:04:59.734Z,99.99
2018-10-09T06:05:59.875Z,99.99
2018-10-09T06:06:59.688Z,99.99
2018-10-09T06:07:59.671Z,99.99
2018-10-09T06:08:59.656Z,99.99
2018-10-09T06:09:59.625Z,99.99
2018-10-09T06:10:59.602Z,99.99
2018-10-09T06:11:59.606Z,99.99
2018-10-09T06:12:59.582Z,99.99
2018-10-09T06:13:59.538Z,99.99
2018-10-09T06:14:59.515Z,99.99
2018-10-09T06:15:59.529Z,99.99
2018-10-09T06:16:59.475Z,99.99
2018-10-09T06:17:59.452Z,99.99
2018-10-09T06:18:59.432Z,99.99
2018-10-09T06:19:59.402Z,99.99
2018-10-09T06:20:59.378Z,99.99
2018-10-09T06:21:59.381Z,99.99
2018-10-09T06:22:59.340Z,99.99
2018-10-09T06:23:59.320Z,99.99
2018-10-09T06:24:59.298Z,99.99
2018-10-09T06:25:59.299Z,99.99
2018-10-09T06:26:59.250Z,99.99
2018-10-09T06:27:59.303Z,99.99
2018-10-09T06:28:59.207Z,99.99
2018-10-09T06:29:59.191Z,99.99
2018-10-09T06:30:59.169Z,99.99
2018-10-09T06:31:59.153Z,99.99
2018-10-09T06:32:59.137Z,99.99
2018-10-09T06:33:59.105Z,99.99
2018-10-09T06:34:59.079Z,99.99
2018-10-09T06:35:59.069Z,99.99
2018-10-09T06:36:59.042Z,99.99
2018-10-09T06:37:59.022Z,99.99
2018-10-09T06:38:58.997Z,99.99
2018-10-09T06:39:58.977Z,99.99
2018-10-09T06:40:58.959Z,99.99
2018-10-09T06:41:58.933Z,99.99
2018-10-09T06:42:58.929Z,99.99
2018-10-09T06:43:58.894Z,99.99
2018-10-09T06:44:58.868Z,99.99
2018-10-09T06:45:58.850Z,99.99
2018-10-09T06:46:58.824Z,99.99
2018-10-09T06:47:58.809Z,99.99
2018-10-09T06:48:58.782Z,99.99
2018-10-09T06:49:58.767Z,99.99
2018-10-09T06:50:58.747Z,99.99
2018-10-09T06:51:58.722Z,99.99
2018-10-09T06:52:58.718Z,99.99
2018-10-09T06:55:30.774Z,99.99
2018-10-09T06:56:30.736Z,99.99
2018-10-09T06:57:30.711Z,99.99
2018-10-09T06:58:30.697Z,99.99
2018-10-09T06:59:30.675Z,99.99
2018-10-09T07:00:30.668Z,99.99
2018-10-09T07:01:30.637Z,99.99
2018-10-09T07:02:30.607Z,99.99
2018-10-09T07:03:30.591Z,99.99
2018-10-09T07:04:30.588Z,99.99
2018-10-09T07:05:30.556Z,99.99
2018-10-09T07:06:30.532Z,99.99
2018-10-09T07:07:30.509Z,99.99
2018-10-09T07:08:30.489Z,99.99
2018-10-09T07:09:30.464Z,99.99
2018-10-09T07:10:30.450Z,99.99
2018-10-09T07:11:30.441Z,99.99
2018-10-09T07:12:30.432Z,99.99
2018-10-09T07:13:30.391Z,99.99
2018-10-09T07:14:30.372Z,99.99
2018-10-09T07:15:30.363Z,99.99
2018-10-09T07:16:30.324Z,99.99
2018-10-09T07:17:30.305Z,99.99
2018-10-09T07:18:30.288Z,99.99
2018-10-09T07:19:30.273Z,99.99
2018-10-09T07:20:30.247Z,99.99
2018-10-09T07:21:30.231Z,99.99
2018-10-09T07:22:30.206Z,99.99
2018-10-09T07:23:30.200Z,99.99
2018-10-09T07:24:30.168Z,99.99
2018-10-09T07:25:30.171Z,99.99
2018-10-09T07:26:30.133Z,99.99
2018-10-09T07:27:30.133Z,99.99
2018-10-09T07:28:30.091Z,99.99
2018-10-09T07:29:30.072Z,99.99
2018-10-09T07:30:30.059Z,99.99
2018-10-09T07:31:30.075Z,99.99
2018-10-09T07:32:30.021Z,99.99
2018-10-09T07:33:30.005Z,99.99
2018-10-09T07:34:29.983Z,99.99
2018-10-09T07:35:29.957Z,99.99
2018-10-09T07:36:29.954Z,99.99
2018-10-09T07:37:29.999Z,99.99
2018-10-09T07:38:29.926Z,99.99
2018-10-09T07:39:29.890Z,99.99
2018-10-09T07:40:29.878Z,99.99
2018-10-09T07:41:29.852Z,99.99
2018-10-09T07:42:29.835Z,99.99
2018-10-09T07:43:29.820Z,99.99
2018-10-09T07:44:29.804Z,99.99
2018-10-09T07:45:29.779Z,99.99
2018-10-09T07:46:29.769Z,99.99
2018-10-09T07:47:29.750Z,99.99
2018-10-09T07:48:29.727Z,99.99
2018-10-09T07:49:29.711Z,99.99
2018-10-09T07:50:29.702Z,99.99
2018-10-09T07:51:29.679Z,99.99
2018-10-09T07:52:29.663Z,99.99
2018-10-09T07:53:29.648Z,99.99
2018-10-09T07:54:29.630Z,99.99
2018-10-09T07:55:29.613Z,99.99
2018-10-09T07:56:29.598Z,99.99
2018-10-09T07:57:29.582Z,99.99
2018-10-09T07:58:29.596Z,99.99
2018-10-09T07:59:29.550Z,99.99
2018-10-09T08:00:29.543Z,99.99
2018-10-09T08:01:29.517Z,99.99
2018-10-09T08:02:29.508Z,99.99
2018-10-09T08:03:29.492Z,99.99
2018-10-09T08:04:29.476Z,99.99
2018-10-09T08:05:29.459Z,99.99
2018-10-09T08:06:29.439Z,99.99
2018-10-09T08:07:29.429Z,99.99
2018-10-09T08:08:29.411Z,99.99
2018-10-09T08:09:29.397Z,99.99
2018-10-09T08:10:29.418Z,99.99
2018-10-09T08:11:29.368Z,99.99
2018-10-09T08:12:29.355Z,99.99
2018-10-09T08:13:29.333Z,99.99
2018-10-09T08:14:29.323Z,99.99
2018-10-09T08:15:29.304Z,99.99
2018-10-09T08:16:29.362Z,99.99
2018-10-09T08:17:29.276Z,99.99
2018-10-09T08:18:29.262Z,99.99
2018-10-09T08:19:29.262Z,99.99
2018-10-09T08:20:29.233Z,99.99
2018-10-09T08:21:29.223Z,99.99
2018-10-09T08:22:29.300Z,99.99
2018-10-09T08:23:29.198Z,99.99
2018-10-09T08:24:29.183Z,99.99
2018-10-09T08:25:29.205Z,99.99
2018-10-09T08:26:29.149Z,99.99
2018-10-09T08:27:29.133Z,99.99
2018-10-09T08:28:29.117Z,99.99
2018-10-09T08:29:29.115Z,99.99
2018-10-09T08:30:29.095Z,99.99
2018-10-09T08:31:29.082Z,99.99
2018-10-09T08:32:29.075Z,99.99
2018-10-09T08:33:29.064Z,99.54
2018-10-09T08:34:29.056Z,99.59
2018-10-09T08:35:29.039Z,99.11
2018-10-09T08:36:29.013Z,97.86
2018-10-09T08:37:29.000Z,97.14
2018-10-09T08:38:28.994Z,98.96
2018-10-09T08:39:28.971Z,98.14
2018-10-09T08:40:28.974Z,99.59
2018-10-09T08:41:28.960Z,98.58
2018-10-09T08:42:28.943Z,97.71
2018-10-09T08:43:28.920Z,97.62
2018-10-09T08:44:28.907Z,96.27
2018-10-09T08:45:28.895Z,96.32
2018-10-09T08:46:28.882Z,95.84
2018-10-09T08:47:28.885Z,95.84
2018-10-09T08:48:28.863Z,97.71
2018-10-09T08:49:28.850Z,96.94
2018-10-09T08:50:28.831Z,96.08
2018-10-09T08:51:28.823Z,95.60
2018-10-09T08:52:28.805Z,95.21
2018-10-09T08:53:28.794Z,95.12
2018-10-09T08:54:28.789Z,94.30
2018-10-09T08:55:28.775Z,94.68
2018-10-09T08:56:28.769Z,95.26
2018-10-09T08:57:28.798Z,96.90
2018-10-09T08:58:28.734Z,95.65
2018-10-09T08:59:28.718Z,95.12
2018-10-09T09:00:28.734Z,95.79
2018-10-09T09:01:28.702Z,97.14
2018-10-09T09:02:28.683Z,97.81
2018-10-09T09:03:28.728Z,97.76
2018-10-09T09:04:28.671Z,99.49
2018-10-09T09:05:28.648Z,98.67
2018-10-09T09:06:28.638Z,99.15
2018-10-09T09:07:28.624Z,99.34
2018-10-09T09:08:28.608Z,99.25
2018-10-09T09:09:28.621Z,99.25
2018-10-09T09:10:28.587Z,99.25
2018-10-09T09:11:28.578Z,98.77
2018-10-09T09:12:28.558Z,99.99
2018-10-09T09:13:28.548Z,99.99
2018-10-09T09:14:28.535Z,99.63
2018-10-09T09:15:28.539Z,99.63
2018-10-09T09:16:28.520Z,99.15
2018-10-09T09:17:28.498Z,99.25
2018-10-09T09:18:28.481Z,99.99
2018-10-09T09:19:28.471Z,99.05
2018-10-09T09:20:28.462Z,98.38
2018-10-09T09:21:28.446Z,98.82
2018-10-09T09:22:28.430Z,98.24
2018-10-09T09:23:28.433Z,98.96
2018-10-09T09:24:28.468Z,98.39
2018-10-09T09:25:28.391Z,96.85
2018-10-09T09:26:28.402Z,97.71
2018-10-09T09:27:28.436Z,98.00
2018-10-09T09:28:28.346Z,98.48
2018-10-09T09:29:28.336Z,96.56
2018-10-09T09:30:28.331Z,95.21
2018-10-09T09:31:28.308Z,96.66
2018-10-09T09:32:28.305Z,97.04
2018-10-09T09:33:28.292Z,97.71
2018-10-09T09:34:28.276Z,96.17
2018-10-09T09:35:28.266Z,96.17
2018-10-09T09:36:28.253Z,96.66
2018-10-09T09:37:28.241Z,97.33
2018-10-09T09:38:28.228Z,96.99
2018-10-09T09:39:28.209Z,97.09
2018-10-09T09:40:28.199Z,97.66
2018-10-09T09:41:28.199Z,97.96
2018-10-09T09:42:28.176Z,98.19
2018-10-09T09:43:28.173Z,98.00
2018-10-09T09:44:28.166Z,99.59
2018-10-09T09:45:28.135Z,96.80
2018-10-09T09:46:28.132Z,98.19
2018-10-09T09:47:28.119Z,95.79
2018-10-09T09:48:28.125Z,95.36
2018-10-09T09:49:28.093Z,96.70
2018-10-09T09:50:28.077Z,96.94
2018-10-09T09:51:28.065Z,95.50
2018-10-09T09:52:28.057Z,94.83
2018-10-09T09:53:28.045Z,94.83
2018-10-09T09:54:28.033Z,94.35
2018-10-09T09:55:28.019Z,94.78
2018-10-09T09:56:28.007Z,95.26
2018-10-09T09:57:28.002Z,95.36
2018-10-09T09:58:28.036Z,95.36
2018-10-09T09:59:27.973Z,96.22
2018-10-09T10:00:27.966Z,97.19
2018-10-09T10:01:27.947Z,97.47
2018-10-09T10:02:27.943Z,97.28
2018-10-09T10:03:27.928Z,97.19
2018-10-09T10:04:27.920Z,96.90
2018-10-09T10:05:27.911Z,96.61
2018-10-09T10:06:27.896Z,96.27
2018-10-09T10:07:27.877Z,98.68
2018-10-09T10:08:27.874Z,99.15
2018-10-09T10:09:27.934Z,97.91
2018-10-09T10:10:27.845Z,98.19
2018-10-09T10:11:27.833Z,98.63
2018-10-09T10:12:27.827Z,98.53
2018-10-09T10:13:27.817Z,97.86
2018-10-09T10:14:27.799Z,98.91
2018-10-09T10:15:27.785Z,97.67
2018-10-09T10:16:27.779Z,99.21
2018-10-09T10:17:27.769Z,98.63
2018-10-09T10:18:27.755Z,98.53
2018-10-09T10:19:27.741Z,99.11
2018-10-09T10:20:27.734Z,99.78
2018-10-09T10:21:27.791Z,98.91
2018-10-09T10:22:27.712Z,97.57
2018-10-09T10:23:27.693Z,99.25
2018-10-09T10:24:27.686Z,98.77
2018-10-09T10:25:27.671Z,99.99
2018-10-09T10:26:27.664Z,99.99
2018-10-09T10:27:27.645Z,99.87
2018-10-09T10:28:27.632Z,99.99
2018-10-09T10:29:27.629Z,99.99
2018-10-09T10:30:27.613Z,99.99
2018-10-09T10:31:27.597Z,99.99
2018-10-09T10:32:27.591Z,99.99
2018-10-09T10:33:27.578Z,99.26
2018-10-09T10:34:27.562Z,97.19
2018-10-09T10:35:27.559Z,95.94
2018-10-09T10:36:27.540Z,94.97
2018-10-09T10:37:27.534Z,94.92
2018-10-09T10:38:27.517Z,95.07
2018-10-09T10:39:27.547Z,94.73
2018-10-09T10:40:27.492Z,92.41
2018-10-09T10:41:27.479Z,91.88
2018-10-09T10:42:27.469Z,90.87
2018-10-09T10:43:27.459Z,91.68
2018-10-09T10:44:27.453Z,88.79
2018-10-09T10:45:27.439Z,87.92
2018-10-09T10:46:27.431Z,88.02
2018-10-09T10:47:27.428Z,88.59
2018-10-09T10:48:27.409Z,90.43
2018-10-09T10:49:27.435Z,89.37
2018-10-09T10:50:27.400Z,88.93
2018-10-09T10:51:27.380Z,87.38
2018-10-09T10:52:27.373Z,87.00
2018-10-09T10:53:27.371Z,85.74
2018-10-09T10:54:27.358Z,88.87
2018-10-09T10:55:27.351Z,86.36
2018-10-09T10:56:27.344Z,87.43
2018-10-09T10:57:27.332Z,87.52
2018-10-09T10:58:27.319Z,88.29
2018-10-09T10:59:27.312Z,85.36
2018-10-09T11:00:27.306Z,85.36
2018-10-09T11:01:27.397Z,85.59
2018-10-09T11:02:27.296Z,85.21
2018-10-09T11:03:27.290Z,86.65
2018-10-09T11:04:27.277Z,87.27
2018-10-09T11:05:27.268Z,85.15
2018-10-09T11:06:27.266Z,84.86
2018-10-09T11:07:27.271Z,83.89
2018-10-09T11:08:27.308Z,83.16
2018-10-09T11:09:27.241Z,83.22
2018-10-09T11:10:27.240Z,85.15
2018-10-09T11:11:27.252Z,83.89
2018-10-09T11:12:27.228Z,82.78
2018-10-09T11:13:27.221Z,81.90
2018-10-09T11:14:27.248Z,82.20
2018-10-09T11:15:27.236Z,81.17
2018-10-09T11:16:27.196Z,80.40
2018-10-09T11:17:27.211Z,80.26
2018-10-09T11:18:27.192Z,80.26
2018-10-09T11:19:27.209Z,82.29
2018-10-09T11:20:27.199Z,83.01
2018-10-09T11:21:27.202Z,79.57
2018-10-09T11:22:27.253Z,80.82
2018-10-09T11:23:27.186Z,81.93
2018-10-09T11:24:27.186Z,76.70
2018-10-09T11:25:27.175Z,76.51
2018-10-09T11:26:27.142Z,78.05
2018-10-09T11:27:27.138Z,78.15
2018-10-09T11:28:27.147Z,77.86
2018-10-09T11:29:27.141Z,76.60
2018-10-09T11:30:27.119Z,77.76
2018-10-09T11:31:27.119Z,78.15
2018-10-09T11:32:27.206Z,78.09
2018-10-09T11:33:27.109Z,77.45
2018-10-09T11:34:27.115Z,76.10
2018-10-09T11:35:27.096Z,77.45
2018-10-09T11:36:27.119Z,77.45
2018-10-09T11:37:27.093Z,74.80
2018-10-09T11:38:27.089Z,74.47
2018-10-09T11:39:27.102Z,76.60
2018-10-09T11:40:27.078Z,76.66
2018-10-09T11:41:27.077Z,76.76
2018-10-09T11:42:27.103Z,79.32
2018-10-09T11:43:27.066Z,79.80
2018-10-09T11:44:27.067Z,79.60
2018-10-09T11:45:27.067Z,79.50
2018-10-09T11:46:27.051Z,77.47
2018-10-09T11:47:27.048Z,76.37
2018-10-09T11:48:27.042Z,80.34
2018-10-09T11:49:27.055Z,80.54
2018-10-09T11:50:27.036Z,79.04
2018-10-09T11:51:27.042Z,79.24
2018-10-09T11:52:27.044Z,78.56
2018-10-09T11:53:27.030Z,80.65
2018-10-09T11:54:27.024Z,81.32
2018-10-09T11:55:27.068Z,81.23
2018-10-09T11:56:27.011Z,79.78
2018-10-09T11:57:27.033Z,79.93
2018-10-09T11:58:27.004Z,79.93
2018-10-09T11:59:27.001Z,80.80
2018-10-09T12:00:26.982Z,81.73
2018-10-09T12:01:26.979Z,81.30
2018-10-09T12:02:26.975Z,82.07
2018-10-09T12:03:26.968Z,81.49
2018-10-09T12:04:26.985Z,84.39
2018-10-09T12:05:26.985Z,82.26
2018-10-09T12:06:26.947Z,82.26
2018-10-09T12:07:26.944Z,81.68
2018-10-09T12:08:26.940Z,83.33
2018-10-09T12:09:26.953Z,84.58
2018-10-09T12:10:26.928Z,83.04
2018-10-09T12:11:26.912Z,84.10
2018-10-09T12:12:26.940Z,84.58
2018-10-09T12:13:26.901Z,83.91
2018-10-09T12:14:26.900Z,83.14
2018-10-09T12:15:26.892Z,85.45
2018-10-09T12:16:26.880Z,85.21
2018-10-09T12:17:26.873Z,85.26
2018-10-09T12:18:26.884Z,84.20
2018-10-09T12:19:26.874Z,84.48
2018-10-09T12:20:26.857Z,83.81
2018-10-09T12:21:26.897Z,82.50
2018-10-09T12:22:26.855Z,83.37
2018-10-09T12:23:26.831Z,82.98
2018-10-09T12:24:26.829Z,84.82
2018-10-09T12:25:26.815Z,83.03
2018-10-09T12:26:26.802Z,81.42
2018-10-09T12:27:26.816Z,82.29
2018-10-09T12:28:26.795Z,82.29
2018-10-09T12:29:26.779Z,80.84
2018-10-09T12:30:26.802Z,81.85
2018-10-09T12:31:26.770Z,83.98
2018-10-09T12:32:26.770Z,79.62
2018-10-09T12:33:26.760Z,80.24
2018-10-09T12:34:26.759Z,79.76
2018-10-09T12:35:26.741Z,80.49
2018-10-09T12:36:26.740Z,79.43
2018-10-09T12:37:26.731Z,79.58
2018-10-09T12:38:26.800Z,79.97
2018-10-09T12:39:26.740Z,80.55
2018-10-09T12:40:26.719Z,81.13
2018-10-09T12:41:26.710Z,82.39
2018-10-09T12:42:26.703Z,81.23
2018-10-09T12:43:26.697Z,80.94
2018-10-09T12:44:26.800Z,81.52
2018-10-09T12:45:26.686Z,81.13
2018-10-09T12:46:26.674Z,81.23
2018-10-09T12:47:26.667Z,81.71
2018-10-09T12:48:26.671Z,81.05
2018-10-09T12:49:26.648Z,82.02
2018-10-09T12:50:26.652Z,83.47
2018-10-09T12:51:26.636Z,83.81
2018-10-09T12:52:26.633Z,84.39
2018-10-09T12:53:26.631Z,83.23